Time;durP1;ratioP1;P1;durP2;ratioP2;P2;SDS_P1;SDS_P2;PMS_P1;PMS_P2;Temp;Humidity;BMP_temperature;BMP_pressure;BME280_temperature;BME280_humidity;BME280_pressure;Samples;Min_cycle;Max_cycle;Signal;HPM_P1;HPM_P2
2022/05/14 00:03:57;;;;;;;4.00;2.50;;;10.00;99.90;;;;;;4897534;29;20614;-70
2022/05/14 00:06:25;;;;;;;7.17;2.33;;;9.90;99.90;;;;;;4897880;29;20478;-72
2022/05/14 00:08:51;;;;;;;9.40;2.13;;;9.90;99.90;;;;;;4897575;29;20439;-71
2022/05/14 00:14:03;;;;;;;5.13;2.50;;;9.90;99.90;;;;;;4897833;29;20494;-71
2022/05/14 00:16:31;;;;;;;3.37;2.10;;;9.80;99.90;;;;;;4897711;29;20434;-72
2022/05/14 00:18:58;;;;;;;3.23;1.73;;;9.80;99.90;;;;;;4897216;29;21003;-71
2022/05/14 00:21:23;;;;;;;2.60;2.30;;;9.80;99.90;;;;;;4902201;29;20563;-71
2022/05/14 00:23:49;;;;;;;7.30;1.70;;;9.80;99.90;;;;;;4896995;29;20497;-70
2022/05/14 00:26:16;;;;;;;12.20;2.07;;;9.70;99.90;;;;;;4896799;29;20628;-71
2022/05/14 00:28:42;;;;;;;4.80;1.77;;;9.70;99.90;;;;;;4896924;29;20473;-71
2022/05/14 00:31:09;;;;;;;6.50;2.03;;;9.70;99.90;;;;;;4896674;29;20471;-71
2022/05/14 00:33:35;;;;;;;6.73;2.00;;;9.70;99.90;;;;;;4897862;29;20461;-72
2022/05/14 00:36:00;;;;;;;5.23;1.90;;;9.70;99.90;;;;;;4897485;29;21312;-70
2022/05/14 00:38:26;;;;;;;3.63;1.80;;;9.60;99.90;;;;;;4910176;29;20477;-71
2022/05/14 00:40:57;;;;;;;8.90;2.33;;;9.70;99.90;;;;;;4915380;29;20210;-71
2022/05/14 00:43:23;;;;;;;4.33;2.00;;;9.70;99.90;;;;;;4905504;29;20246;-71
2022/05/14 00:45:56;;;;;;;2.00;1.80;;;9.70;99.90;;;;;;4915607;29;20432;-71
2022/05/14 00:48:25;;;;;;;5.63;1.50;;;9.60;99.90;;;;;;4904753;29;20271;-71
2022/05/14 00:50:57;;;;;;;7.10;1.60;;;9.60;99.90;;;;;;4896788;29;20440;-71
2022/05/14 00:53:30;;;;;;;2.10;1.17;;;9.60;99.90;;;;;;4896768;29;20456;-73
2022/05/14 00:55:58;;;;;;;4.93;1.43;;;9.60;99.90;;;;;;4897762;29;20418;-71
2022/05/14 00:58:40;;;;;;;4.00;1.40;;;9.50;99.90;;;;;;4896995;29;20448;-71
2022/05/14 02:32:38;;;;;;;2.10;1.80;;;8.70;99.90;;;;;;5147525;23;20596;-71
2022/05/14 02:35:05;;;;;;;6.17;1.67;;;8.60;99.90;;;;;;4954507;28;20514;-71
2022/05/14 02:37:30;;;;;;;5.70;2.20;;;8.50;99.90;;;;;;4955331;28;21055;-71
2022/05/14 02:39:56;;;;;;;3.30;2.00;;;8.50;99.90;;;;;;4955976;28;20425;-72
2022/05/14 02:42:22;;;;;;;4.70;1.80;;;8.50;99.90;;;;;;4969551;28;20216;-71
2022/05/14 02:44:47;;;;;;;5.00;1.63;;;8.50;99.90;;;;;;4955956;28;20182;-71
2022/05/14 02:47:13;;;;;;;3.80;2.13;;;8.50;99.90;;;;;;4954914;28;20341;-71
2022/05/14 02:49:39;;;;;;;3.73;1.80;;;8.50;99.90;;;;;;4955174;28;20609;-72
2022/05/14 02:52:05;;;;;;;8.13;1.50;;;8.50;99.90;;;;;;4954537;28;20212;-73
2022/05/14 02:54:31;;;;;;;3.73;2.00;;;8.50;99.90;;;;;;4955191;29;20969;-70
2022/05/14 02:56:56;;;;;;;7.03;1.73;;;8.50;99.90;;;;;;4955607;28;20239;-71
2022/05/14 02:59:22;;;;;;;4.60;1.50;;;8.40;99.90;;;;;;4954927;28;20693;-71
2022/05/14 03:01:50;;;;;;;2.20;1.97;;;8.40;99.90;;;;;;4955430;28;20302;-72
2022/05/14 03:04:22;;;;;;;13.93;2.20;;;8.30;99.90;;;;;;4954356;28;20207;-71
2022/05/14 03:06:49;;;;;;;3.00;2.10;;;8.20;99.90;;;;;;4955214;28;20429;-72
2022/05/14 03:09:15;;;;;;;4.23;2.70;;;8.20;99.90;;;;;;4954591;28;20570;-70
2022/05/14 03:11:41;;;;;;;3.33;1.50;;;8.20;99.90;;;;;;4955319;28;20890;-71
2022/05/14 03:14:06;;;;;;;2.17;1.97;;;8.10;99.90;;;;;;4954775;28;20203;-71
2022/05/14 03:16:32;;;;;;;1.90;1.63;;;8.10;99.90;;;;;;4954982;28;20190;-71
2022/05/14 03:18:57;;;;;;;6.00;2.47;;;8.10;99.90;;;;;;4954682;28;20207;-69
2022/05/14 03:21:23;;;;;;;4.30;1.70;;;8.00;99.90;;;;;;4954755;28;20221;-71
2022/05/14 03:23:49;;;;;;;2.40;2.13;;;8.10;99.90;;;;;;4954568;28;20181;-71
2022/05/14 03:26:15;;;;;;;8.43;2.13;;;8.10;99.90;;;;;;4954712;28;20189;-71
2022/05/14 03:28:40;;;;;;;5.03;2.17;;;8.00;99.90;;;;;;4954894;29;20469;-71
2022/05/14 03:31:06;;;;;;;3.70;2.60;;;8.00;99.90;;;;;;4953858;28;20232;-72
2022/05/14 03:33:32;;;;;;;4.57;2.40;;;8.00;99.90;;;;;;4953815;28;20214;-71
2022/05/14 03:35:58;;;;;;;4.60;2.17;;;8.00;99.90;;;;;;4954168;28;20244;-71
2022/05/14 03:38:23;;;;;;;5.77;2.30;;;7.90;99.90;;;;;;4954828;28;20485;-71
2022/05/14 03:40:49;;;;;;;3.47;2.20;;;7.90;99.90;;;;;;4953113;28;20703;-71
2022/05/14 03:43:15;;;;;;;5.30;2.40;;;7.90;99.90;;;;;;4954923;28;20185;-70
2022/05/14 03:45:40;;;;;;;5.53;2.17;;;7.90;99.90;;;;;;4953889;28;20194;-73
2022/05/14 03:48:06;;;;;;;2.30;2.20;;;7.90;99.90;;;;;;4954317;29;20495;-70
2022/05/14 03:50:32;;;;;;;3.30;2.00;;;7.90;99.90;;;;;;4953278;29;20742;-70
2022/05/14 03:52:57;;;;;;;3.87;2.10;;;7.90;99.90;;;;;;4954475;29;20208;-72
2022/05/14 03:55:23;;;;;;;6.80;2.47;;;7.90;99.90;;;;;;4953855;28;20554;-71
2022/05/14 03:57:49;;;;;;;5.50;2.23;;;7.90;99.90;;;;;;4954040;28;20196;-71
2022/05/14 04:00:15;;;;;;;5.13;2.40;;;7.90;99.90;;;;;;4954000;28;20445;-71
2022/05/14 04:02:41;;;;;;;3.13;2.10;;;7.90;99.90;;;;;;4954100;29;20216;-70
2022/05/14 04:05:07;;;;;;;4.57;2.93;;;7.90;99.90;;;;;;4953674;28;20496;-71
2022/05/14 04:07:32;;;;;;;2.57;2.37;;;7.90;99.90;;;;;;4953586;28;20225;-71
2022/05/14 04:09:58;;;;;;;7.73;3.00;;;8.00;99.90;;;;;;4954241;28;20795;-71
2022/05/14 04:12:27;;;;;;;3.17;2.30;;;7.90;99.90;;;;;;4953407;28;20212;-71
2022/05/14 04:14:52;;;;;;;2.20;2.10;;;8.00;99.90;;;;;;4954328;28;20204;-71
2022/05/14 04:17:18;;;;;;;5.27;2.07;;;8.00;99.90;;;;;;4952768;28;20877;-71
2022/05/14 04:19:43;;;;;;;5.33;2.57;;;8.10;99.90;;;;;;4953612;28;20210;-71
2022/05/14 04:22:09;;;;;;;3.23;2.50;;;8.10;99.90;;;;;;4953115;28;20197;-71
2022/05/14 04:24:34;;;;;;;13.73;2.47;;;8.20;99.90;;;;;;4954409;28;20179;-71
2022/05/14 04:27:00;;;;;;;9.77;2.63;;;8.30;99.90;;;;;;4953276;29;20189;-72
2022/05/14 04:29:25;;;;;;;6.73;2.60;;;8.30;99.90;;;;;;4955772;28;20261;-73
2022/05/14 04:31:51;;;;;;;2.20;2.00;;;8.40;99.90;;;;;;4955844;29;20285;-72
2022/05/14 04:34:18;;;;;;;2.60;2.10;;;8.40;99.90;;;;;;4954145;28;20262;-72
2022/05/14 04:36:43;;;;;;;3.90;2.37;;;8.50;99.90;;;;;;4953218;28;20632;-71
2022/05/14 04:39:09;;;;;;;5.40;2.00;;;8.50;99.90;;;;;;4952391;28;20473;-71
2022/05/14 04:41:35;;;;;;;2.30;2.17;;;8.60;99.90;;;;;;4953819;29;20211;-73
2022/05/14 04:44:01;;;;;;;7.63;2.40;;;8.70;99.90;;;;;;4953037;28;20190;-71
2022/05/14 04:46:27;;;;;;;2.43;2.23;;;8.70;99.90;;;;;;4953769;28;20933;-72
2022/05/14 04:48:53;;;;;;;4.30;2.33;;;8.80;99.90;;;;;;4952330;28;20352;-70
2022/05/14 04:51:19;;;;;;;3.20;2.40;;;8.90;99.90;;;;;;4952916;28;20212;-70
2022/05/14 04:53:45;;;;;;;4.20;2.47;;;9.00;99.90;;;;;;4952835;28;20447;-71
2022/05/14 04:56:11;;;;;;;7.40;2.90;;;9.20;99.90;;;;;;4953607;28;20417;-71
2022/05/14 04:58:36;;;;;;;2.30;2.10;;;9.30;99.90;;;;;;4952805;29;20179;-71
2022/05/14 05:01:02;;;;;;;4.80;1.90;;;9.40;99.90;;;;;;4952530;28;20446;-71
2022/05/14 05:03:28;;;;;;;2.73;2.23;;;9.60;99.90;;;;;;4952769;28;20267;-71
2022/05/14 05:05:58;;;;;;;2.23;2.03;;;9.70;99.90;;;;;;4952861;29;20191;-70
2022/05/14 05:08:31;;;;;;;2.67;2.47;;;9.90;99.90;;;;;;4952703;28;20478;-70
2022/05/14 05:10:57;;;;;;;2.10;2.00;;;10.10;99.90;;;;;;4946313;29;20999;-69
2022/05/14 05:13:25;;;;;;;3.10;2.70;;;10.40;99.90;;;;;;4953204;28;20503;-71
2022/05/14 05:15:52;;;;;;;2.13;1.97;;;11.30;99.90;;;;;;4953079;29;20436;-72
2022/05/14 05:18:19;;;;;;;5.70;2.33;;;13.80;99.90;;;;;;4953303;28;20415;-71
2022/05/14 05:20:48;;;;;;;5.10;1.80;;;17.00;99.90;;;;;;4951581;29;20959;-71
2022/05/14 05:23:16;;;;;;;2.33;1.90;;;19.50;99.90;;;;;;4953105;28;20416;-72
2022/05/14 05:25:42;;;;;;;2.20;1.60;;;21.60;99.90;;;;;;4952800;28;20450;-72
2022/05/14 05:28:08;;;;;;;4.10;1.77;;;22.70;99.90;;;;;;4953360;28;20464;-74
2022/05/14 05:30:33;;;;;;;3.00;1.53;;;24.20;99.90;;;;;;4951749;28;20463;-69
2022/05/14 05:32:59;;;;;;;2.80;2.20;;;24.80;99.90;;;;;;4952566;28;20255;-72
2022/05/14 05:35:25;;;;;;;3.70;2.23;;;25.00;99.90;;;;;;4952438;28;20554;-72
2022/05/14 05:37:50;;;;;;;3.63;2.30;;;25.40;99.90;;;;;;4951168;28;20227;-72
2022/05/14 05:40:17;;;;;;;4.23;2.67;;;25.50;99.90;;;;;;4952397;28;20184;-72
2022/05/14 05:42:44;;;;;;;5.43;2.60;;;26.10;99.90;;;;;;4952270;28;20283;-72
2022/05/14 05:45:12;;;;;;;5.00;1.90;;;25.90;99.90;;;;;;4952513;28;20535;-72
2022/05/14 05:47:38;;;;;;;5.30;2.33;;;25.90;99.90;;;;;;4953066;28;20855;-72
2022/05/14 05:50:04;;;;;;;3.53;1.90;;;25.60;99.90;;;;;;4952073;28;20447;-73
2022/05/14 05:52:32;;;;;;;5.80;2.57;;;25.60;99.90;;;;;;4952833;28;20619;-71
2022/05/14 05:57:42;;;;;;;1.77;1.67;;;24.60;99.90;;;;;;4952779;28;20502;-71
2022/05/14 06:00:14;;;;;;;3.83;2.50;;;23.90;99.90;;;;;;4952856;28;20424;-70
2022/05/14 06:02:40;;;;;;;9.57;2.83;;;23.30;99.90;;;;;;4951487;28;20283;-70
2022/05/14 06:05:06;;;;;;;3.90;2.03;;;22.40;99.90;;;;;;4956053;28;20659;-71
2022/05/14 06:07:34;;;;;;;5.57;2.13;;;21.90;99.90;;;;;;4955998;28;20196;-71
2022/05/14 06:10:02;;;;;;;2.37;1.87;;;21.90;99.90;;;;;;4971647;28;20470;-71
2022/05/14 06:12:28;;;;;;;6.90;1.90;;;21.90;99.90;;;;;;4954905;28;20515;-71
2022/05/14 06:14:53;;;;;;;5.93;1.77;;;21.60;99.90;;;;;;4956591;28;20416;-71
2022/05/14 06:17:19;;;;;;;3.37;1.77;;;21.60;99.90;;;;;;4955818;28;20196;-71
2022/05/14 06:19:44;;;;;;;3.97;1.90;;;21.70;99.90;;;;;;4956048;28;20239;-70
2022/05/14 06:22:10;;;;;;;8.53;2.40;;;21.80;99.90;;;;;;4955572;28;20213;-72
2022/05/14 06:24:36;;;;;;;7.43;2.03;;;21.90;99.90;;;;;;4956266;28;20616;-71
2022/05/14 06:27:02;;;;;;;2.90;1.83;;;21.60;99.90;;;;;;4955602;28;20190;-71
2022/05/14 06:29:28;;;;;;;6.37;1.90;;;21.40;99.90;;;;;;4956307;29;20968;-71
2022/05/14 06:31:54;;;;;;;3.77;2.30;;;21.30;99.90;;;;;;4955487;28;21081;-72
2022/05/14 06:34:20;;;;;;;3.27;2.40;;;21.60;99.90;;;;;;4955629;28;20530;-71
2022/05/14 06:36:45;;;;;;;5.03;2.00;;;21.90;99.90;;;;;;4955154;28;20224;-71
2022/05/14 06:39:11;;;;;;;3.13;2.57;;;22.10;99.90;;;;;;4955455;28;20196;-71
2022/05/14 06:41:38;;;;;;;9.30;2.33;;;22.00;99.90;;;;;;4955936;28;20263;-71
2022/05/14 06:44:04;;;;;;;8.43;2.00;;;22.00;99.90;;;;;;4954635;28;20275;-71
2022/05/14 06:46:29;;;;;;;2.63;2.20;;;21.80;99.90;;;;;;4956177;28;20558;-71
2022/05/14 06:48:54;;;;;;;3.73;2.40;;;21.90;99.90;;;;;;4955410;28;20501;-72
2022/05/14 06:51:23;;;;;;;3.90;2.20;;;22.10;99.90;;;;;;4955072;28;20589;-71
2022/05/14 06:53:52;;;;;;;2.70;2.33;;;22.40;99.90;;;;;;4955273;28;20192;-71
2022/05/14 06:56:19;;;;;;;4.73;2.23;;;22.60;99.90;;;;;;4955283;28;20447;-71
2022/05/14 06:58:48;;;;;;;3.77;2.43;;;22.50;99.90;;;;;;4955389;29;20440;-71
2022/05/14 07:01:15;;;;;;;3.00;1.93;;;22.50;99.90;;;;;;4955410;28;20443;-72
2022/05/14 07:06:37;;;;;;;2.97;2.07;;;22.90;99.90;;;;;;4952877;28;20411;-72
2022/05/14 07:09:04;;;;;;;5.53;1.97;;;22.80;99.90;;;;;;4954814;28;20510;-71
2022/05/14 07:11:29;;;;;;;3.70;2.60;;;22.90;99.90;;;;;;4955850;28;20432;-72
2022/05/14 07:13:55;;;;;;;11.03;2.43;;;23.30;99.90;;;;;;4959609;28;20960;-72
2022/05/14 07:16:20;;;;;;;5.90;1.63;;;23.60;99.90;;;;;;4958510;28;20204;-72
2022/05/14 07:18:46;;;;;;;1.30;1.20;;;24.10;99.90;;;;;;4956093;28;20704;-71
2022/05/14 07:21:12;;;;;;;4.57;1.53;;;23.90;99.90;;;;;;4954607;28;20208;-71
2022/05/14 07:23:38;;;;;;;3.63;1.70;;;23.90;99.90;;;;;;4955330;28;20173;-71
2022/05/14 07:26:05;;;;;;;2.10;1.20;;;24.10;99.90;;;;;;4954253;29;20448;-71
2022/05/14 07:28:31;;;;;;;1.30;0.90;;;24.10;99.90;;;;;;4955298;28;20212;-71
2022/05/14 07:30:57;;;;;;;1.20;1.10;;;24.60;99.90;;;;;;4954147;28;20841;-72
2022/05/14 07:33:22;;;;;;;2.77;1.80;;;24.60;99.90;;;;;;4953867;28;20483;-72
2022/05/14 07:35:48;;;;;;;4.60;1.50;;;24.80;99.90;;;;;;4955279;28;20177;-71
2022/05/14 07:38:14;;;;;;;3.47;1.60;;;24.60;99.90;;;;;;4955011;28;20224;-71
2022/05/14 07:40:39;;;;;;;6.20;1.70;;;24.50;99.90;;;;;;4954101;28;20672;-71
2022/05/14 07:43:08;;;;;;;6.27;1.73;;;24.60;99.90;;;;;;4954940;29;20602;-72
2022/05/14 07:45:42;;;;;;;3.17;1.60;;;24.80;99.90;;;;;;4954519;28;20180;-72
2022/05/14 07:48:14;;;;;;;12.53;2.27;;;24.90;99.90;;;;;;4954249;29;20939;-71
2022/05/14 07:50:40;;;;;;;4.73;1.67;;;25.00;99.90;;;;;;4953551;28;20458;-71
2022/05/14 07:53:06;;;;;;;2.97;1.63;;;25.10;99.90;;;;;;4954799;28;20428;-72
2022/05/14 07:55:33;;;;;;;4.03;1.10;;;24.90;99.90;;;;;;4954973;29;20173;-71
2022/05/14 07:57:59;;;;;;;4.60;1.80;;;24.90;99.90;;;;;;4953556;28;20454;-72
2022/05/14 08:00:25;;;;;;;2.87;1.00;;;25.10;99.90;;;;;;4954595;28;20775;-71
2022/05/14 08:02:51;;;;;;;2.00;1.80;;;25.20;99.90;;;;;;4953822;29;20204;-72
2022/05/14 08:05:20;;;;;;;1.67;0.80;;;25.60;99.90;;;;;;4953821;28;20443;-72
2022/05/14 08:07:46;;;;;;;4.73;1.70;;;25.90;99.90;;;;;;4954057;28;20263;-72
2022/05/14 08:10:13;;;;;;;2.50;1.70;;;26.20;99.90;;;;;;4954420;28;20405;-72
2022/05/14 08:12:43;;;;;;;6.33;2.00;;;25.80;99.90;;;;;;4953605;28;20456;-72
2022/05/14 08:15:12;;;;;;;4.30;1.90;;;25.90;99.90;;;;;;4953886;28;20420;-71
2022/05/14 08:17:37;;;;;;;7.03;1.30;;;26.00;99.90;;;;;;4953691;29;20730;-72
2022/05/14 08:20:03;;;;;;;3.03;1.47;;;26.40;99.90;;;;;;4954244;28;20423;-71
2022/05/14 08:25:14;;;;;;;3.53;1.53;;;27.20;99.90;;;;;;4954368;28;20415;-72
2022/05/14 08:27:46;;;;;;;3.03;1.57;;;26.70;99.90;;;;;;4953224;28;20570;-72
2022/05/14 08:30:23;;;;;;;2.73;1.50;;;26.80;99.90;;;;;;4954322;28;20936;-72
2022/05/14 08:32:49;;;;;;;4.50;1.30;;;26.50;99.90;;;;;;4952707;28;20515;-72
2022/05/14 08:35:16;;;;;;;3.53;1.20;;;25.90;99.90;;;;;;4953404;28;20440;-72
2022/05/14 08:37:42;;;;;;;6.43;1.67;;;26.40;99.90;;;;;;4953781;28;20448;-71
2022/05/14 08:40:14;;;;;;;3.80;1.63;;;26.60;99.90;;;;;;4954022;28;20486;-72
2022/05/14 08:42:40;;;;;;;4.20;2.00;;;26.90;99.90;;;;;;4953258;28;20436;-72
2022/05/14 08:45:06;;;;;;;5.50;1.80;;;27.20;99.90;;;;;;4953812;28;20424;-72
2022/05/14 08:47:39;;;;;;;2.17;1.00;;;27.30;99.90;;;;;;4953894;28;20427;-72
2022/05/14 08:50:07;;;;;;;4.90;1.27;;;27.80;99.90;;;;;;4952718;28;20436;-71
2022/05/14 08:52:35;;;;;;;2.53;1.30;;;28.10;99.90;;;;;;4953490;28;20444;-72
2022/05/14 08:55:07;;;;;;;1.77;1.23;;;27.70;99.80;;;;;;4953214;29;20470;-72
2022/05/14 08:57:55;;;;;;;4.03;1.50;;;27.80;99.90;;;;;;4953889;28;20913;-72
2022/05/14 09:00:22;;;;;;;4.33;2.10;;;28.00;99.90;;;;;;4952393;28;20564;-72
2022/05/14 09:02:51;;;;;;;9.07;2.10;;;28.30;99.60;;;;;;4953465;29;20511;-72
2022/05/14 09:05:20;;;;;;;2.77;1.80;;;27.80;99.10;;;;;;4952868;28;20531;-72
2022/05/14 09:07:46;;;;;;;5.37;1.97;;;27.10;99.50;;;;;;4953673;28;20460;-72
2022/05/14 09:10:26;;;;;;;2.60;1.57;;;26.80;99.90;;;;;;4952201;28;20523;-72
2022/05/14 09:12:58;;;;;;;2.70;1.60;;;26.50;99.90;;;;;;4934086;29;20982;-72
2022/05/14 09:15:27;;;;;;;1.40;1.17;;;26.70;99.90;;;;;;4945121;29;20432;-72
2022/05/14 09:18:18;;;;;;;6.33;1.33;;;27.10;99.90;;;;;;4953602;28;20416;-72
2022/05/14 09:21:14;;;;;;;1.43;1.10;;;27.40;99.60;;;;;;4952110;28;20494;-72
2022/05/14 09:23:49;;;;;;;2.43;1.17;;;27.80;99.90;;;;;;4932128;29;20436;-72
2022/05/14 09:26:18;;;;;;;2.07;1.00;;;27.90;99.90;;;;;;4948082;28;20431;-72
2022/05/14 09:28:49;;;;;;;4.97;1.60;;;28.00;98.70;;;;;;4953271;29;20471;-72
2022/05/14 09:31:33;;;;;;;4.23;1.27;;;27.90;99.90;;;;;;4951510;29;20550;-71
2022/05/14 09:34:10;;;;;;;2.93;0.70;;;28.00;99.90;;;;;;4950270;28;20463;-72
2022/05/14 09:36:36;;;;;;;1.43;0.90;;;28.50;99.90;;;;;;4953200;28;20502;-72
2022/05/14 09:39:09;;;;;;;3.70;1.13;;;28.70;99.90;;;;;;4955556;28;20462;-72
2022/05/14 09:41:41;;;;;;;2.20;0.90;;;28.80;98.50;;;;;;4955763;29;20464;-72
2022/05/14 09:44:12;;;;;;;3.03;1.43;;;29.20;99.70;;;;;;4956935;28;20723;-72
2022/05/14 09:46:38;;;;;;;2.50;1.03;;;29.30;99.40;;;;;;4956706;28;20491;-72
2022/05/14 09:49:07;;;;;;;3.03;1.30;;;29.50;98.80;;;;;;4956833;29;20464;-72
2022/05/14 09:51:46;;;;;;;4.20;1.17;;;29.30;98.30;;;;;;4956029;28;20215;-72
2022/05/14 09:54:12;;;;;;;5.00;3.30;;;29.30;97.50;;;;;;4959135;28;20435;-72
2022/05/14 09:57:06;;;;;;;1.27;0.70;;;29.60;97.70;;;;;;4959004;28;20440;-72
2022/05/14 10:00:00;;;;;;;7.93;1.10;;;29.70;95.70;;;;;;4957058;28;20704;-72
2022/05/14 10:02:44;;;;;;;5.80;1.07;;;30.00;96.30;;;;;;4955146;28;20542;-72
2022/05/14 10:05:35;;;;;;;4.10;1.03;;;30.00;97.40;;;;;;4955952;28;20447;-72
2022/05/14 10:08:22;;;;;;;5.30;0.90;;;29.80;97.30;;;;;;4950646;28;20472;-73
2022/05/14 10:11:05;;;;;;;2.80;1.20;;;29.90;96.80;;;;;;4956313;28;20407;-73
2022/05/14 10:13:48;;;;;;;3.77;1.03;;;30.20;95.30;;;;;;4955350;28;20454;-72
2022/05/14 10:16:27;;;;;;;2.30;1.00;;;29.50;95.60;;;;;;4956437;28;20412;-72
2022/05/14 10:19:04;;;;;;;4.73;1.07;;;29.80;96.30;;;;;;4955813;28;20479;-72
2022/05/14 10:21:48;;;;;;;4.83;1.30;;;29.60;97.70;;;;;;4955780;29;20467;-72
2022/05/14 10:27:27;;;;;;;6.50;1.40;;;30.00;97.20;;;;;;4956063;28;20924;-72
2022/05/14 10:30:01;;;;;;;5.30;1.20;;;30.00;94.90;;;;;;4937105;29;20787;-72
2022/05/14 10:32:32;;;;;;;5.03;1.17;;;29.50;95.60;;;;;;4940062;29;20467;-71
2022/05/14 10:35:09;;;;;;;5.10;1.20;;;30.00;95.20;;;;;;4954457;28;20439;-72
2022/05/14 10:37:54;;;;;;;3.67;1.03;;;30.20;94.40;;;;;;4956260;28;20784;-72
2022/05/14 10:40:32;;;;;;;2.40;1.03;;;29.60;93.90;;;;;;4955634;29;20523;-71
2022/05/14 10:43:16;;;;;;;2.57;0.90;;;28.80;94.00;;;;;;4955320;28;20435;-72
2022/05/14 10:45:47;;;;;;;1.33;0.87;;;28.90;95.50;;;;;;4955465;28;20523;-73
2022/05/14 10:48:50;;;;;;;5.00;1.10;;;29.40;95.10;;;;;;4955045;28;20902;-72
2022/05/14 10:51:25;;;;;;;8.27;1.37;;;29.50;92.50;;;;;;4955147;28;20554;-72
2022/05/14 10:53:51;;;;;;;1.93;0.70;;;29.40;94.70;;;;;;4955258;28;20872;-72
2022/05/14 10:56:35;;;;;;;1.63;1.47;;;29.60;95.80;;;;;;4955023;28;20443;-72
2022/05/14 10:59:12;;;;;;;4.77;0.80;;;29.80;95.30;;;;;;4955061;28;20475;-72
2022/05/14 11:01:41;;;;;;;2.40;1.27;;;29.20;93.70;;;;;;4955548;28;20440;-72
2022/05/14 11:04:18;;;;;;;2.50;0.90;;;28.20;93.60;;;;;;4954773;29;20431;-71
2022/05/14 11:07:11;;;;;;;1.90;1.03;;;27.80;92.70;;;;;;4954381;28;20446;-72
2022/05/14 11:09:41;;;;;;;5.80;0.93;;;27.90;96.20;;;;;;4953936;28;20483;-70
2022/05/14 11:12:11;;;;;;;2.67;0.80;;;27.90;95.20;;;;;;4954927;28;20876;-72
2022/05/14 11:14:41;;;;;;;3.00;0.87;;;28.00;96.30;;;;;;4954877;29;20416;-71
2022/05/14 11:17:36;;;;;;;3.90;2.30;;;28.10;94.40;;;;;;4954602;28;20459;-71
2022/05/14 11:20:02;;;;;;;7.13;1.13;;;28.10;94.90;;;;;;4954578;28;20531;-72
2022/05/14 11:22:34;;;;;;;5.93;1.10;;;27.90;94.00;;;;;;4954905;28;20535;-72
2022/05/14 11:25:12;;;;;;;8.70;1.03;;;27.70;94.70;;;;;;4954616;28;20267;-72
2022/05/14 11:27:39;;;;;;;5.00;1.20;;;27.60;94.90;;;;;;4949008;28;20542;-72
2022/05/14 11:30:11;;;;;;;0.87;0.83;;;27.10;93.50;;;;;;4954395;29;20420;-71
2022/05/14 11:32:48;;;;;;;3.93;0.87;;;26.80;92.90;;;;;;4953994;28;20472;-71
2022/05/14 11:35:15;;;;;;;2.73;0.93;;;26.80;94.80;;;;;;4953741;28;20443;-71
2022/05/14 11:37:47;;;;;;;3.37;0.80;;;27.10;94.30;;;;;;4954977;28;20420;-72
2022/05/14 11:40:21;;;;;;;2.57;0.80;;;27.10;96.20;;;;;;4954741;28;20750;-72
2022/05/14 11:43:21;;;;;;;2.93;0.83;;;27.10;95.00;;;;;;4954014;28;20464;-72
2022/05/14 11:46:09;;;;;;;3.53;0.70;;;27.20;95.50;;;;;;4953090;28;20417;-72
2022/05/14 11:48:46;;;;;;;2.93;0.90;;;26.90;95.10;;;;;;4949563;29;20486;-72
2022/05/14 11:51:18;;;;;;;3.00;1.00;;;26.90;95.90;;;;;;4953218;28;20467;-72
2022/05/14 11:53:58;;;;;;;2.30;1.07;;;27.00;95.80;;;;;;4954744;28;20648;-71
2022/05/14 11:56:35;;;;;;;4.27;1.00;;;27.00;96.50;;;;;;4954044;28;20447;-71
2022/05/14 11:59:18;;;;;;;3.73;1.20;;;26.80;95.60;;;;;;4953941;28;20458;-72
2022/05/14 12:01:47;;;;;;;2.30;0.90;;;26.80;97.30;;;;;;4953249;28;20503;-72
2022/05/14 12:04:20;;;;;;;2.83;1.53;;;26.70;93.10;;;;;;4954417;28;20452;-72
2022/05/14 12:06:55;;;;;;;1.53;0.83;;;26.20;93.70;;;;;;4953673;28;20462;-72
2022/05/14 12:09:49;;;;;;;2.87;0.97;;;26.00;94.10;;;;;;4947330;28;20511;-72
2022/05/14 12:12:32;;;;;;;5.40;1.20;;;26.00;94.00;;;;;;4953284;28;20456;-72
2022/05/14 12:15:12;;;;;;;3.63;1.33;;;26.10;95.50;;;;;;4954385;28;20431;-72
2022/05/14 12:17:45;;;;;;;1.33;1.20;;;26.10;95.40;;;;;;4953618;28;20459;-72
2022/05/14 12:20:16;;;;;;;2.80;1.13;;;26.20;96.70;;;;;;4952934;28;20448;-72
2022/05/14 12:22:51;;;;;;;1.83;1.27;;;26.20;96.70;;;;;;4952929;28;21011;-71
2022/05/14 12:25:17;;;;;;;3.63;1.10;;;26.10;95.50;;;;;;4954183;29;20415;-72
2022/05/14 12:27:49;;;;;;;1.47;0.80;;;26.10;97.60;;;;;;4953359;28;20917;-72
2022/05/14 12:33:19;;;;;;;1.43;0.70;;;25.90;96.50;;;;;;4952894;28;20631;-72
2022/05/14 12:35:56;;;;;;;1.73;0.60;;;25.90;97.80;;;;;;4940555;29;20435;-73
2022/05/14 12:38:28;;;;;;;2.27;0.77;;;26.00;97.20;;;;;;4953130;28;20428;-72
2022/05/14 12:40:54;;;;;;;1.97;0.80;;;26.10;96.60;;;;;;4953034;29;20599;-71
2022/05/14 12:43:20;;;;;;;1.63;0.90;;;26.00;95.80;;;;;;4951642;28;20546;-71
2022/05/14 12:45:58;;;;;;;1.53;0.80;;;26.00;98.20;;;;;;4954004;28;20658;-73
2022/05/14 12:48:24;;;;;;;2.73;1.13;;;26.00;95.40;;;;;;4953495;28;20276;-72
2022/05/14 12:50:55;;;;;;;4.30;0.90;;;25.90;94.30;;;;;;4952346;29;21028;-71
2022/05/14 12:53:36;;;;;;;2.90;0.90;;;25.90;94.40;;;;;;4953199;28;20196;-72
2022/05/14 12:56:03;;;;;;;3.53;0.97;;;25.50;95.70;;;;;;4952991;28;20459;-72
2022/05/14 12:58:31;;;;;;;6.10;1.00;;;25.50;95.70;;;;;;4953580;28;20432;-72
2022/05/14 13:00:57;;;;;;;3.00;0.80;;;25.40;95.60;;;;;;4952670;29;20523;-72
2022/05/14 13:03:34;;;;;;;4.10;1.03;;;25.50;96.30;;;;;;4952188;28;20987;-71
2022/05/14 13:06:23;;;;;;;1.83;0.90;;;25.70;96.50;;;;;;4952861;28;20195;-71
2022/05/14 13:08:58;;;;;;;1.20;0.83;;;25.70;97.60;;;;;;4953693;28;20463;-73
2022/05/14 13:11:27;;;;;;;1.80;1.03;;;25.70;97.20;;;;;;4952407;28;20796;-72
2022/05/14 13:14:08;;;;;;;2.97;0.80;;;25.60;96.10;;;;;;4953465;29;20413;-72
2022/05/14 13:16:34;;;;;;;3.87;0.97;;;25.50;96.90;;;;;;4952291;28;20796;-71
2022/05/14 13:19:16;;;;;;;1.93;0.87;;;25.40;95.70;;;;;;4953261;28;20420;-71
2022/05/14 13:21:49;;;;;;;3.73;1.13;;;25.20;93.90;;;;;;4952456;28;20201;-71
2022/05/14 13:24:22;;;;;;;5.50;1.30;;;24.90;94.60;;;;;;4953183;28;20422;-71
2022/05/14 13:26:49;;;;;;;1.97;1.07;;;24.80;94.10;;;;;;4952257;29;20996;-71
2022/05/14 13:29:36;;;;;;;3.27;1.03;;;24.90;97.60;;;;;;4953093;28;20500;-72
2022/05/14 13:32:22;;;;;;;2.33;1.00;;;24.80;95.90;;;;;;4952174;28;20471;-72
2022/05/14 13:37:52;;;;;;;3.40;1.00;;;24.70;96.80;;;;;;4952634;28;20480;-72
2022/05/14 13:40:28;;;;;;;1.53;0.80;;;24.70;96.20;;;;;;4953277;28;20421;-72
2022/05/14 13:42:56;;;;;;;2.27;1.00;;;24.80;95.50;;;;;;4952512;29;20456;-72
2022/05/14 13:45:28;;;;;;;1.30;0.90;;;24.60;94.10;;;;;;4953642;28;20753;-72
2022/05/14 13:48:02;;;;;;;3.10;1.20;;;24.50;94.80;;;;;;4954604;28;20499;-72
2022/05/14 13:50:33;;;;;;;1.27;1.00;;;24.50;96.20;;;;;;4955014;28;20432;-71
2022/05/14 13:53:00;;;;;;;1.43;1.00;;;24.60;96.30;;;;;;4948174;28;20467;-72
2022/05/14 13:55:36;;;;;;;2.10;0.87;;;24.60;96.40;;;;;;4954510;28;20440;-72
2022/05/14 13:58:26;;;;;;;3.40;1.00;;;24.50;95.90;;;;;;4952315;28;20428;-72
2022/05/14 14:01:00;;;;;;;3.30;1.50;;;24.50;95.20;;;;;;4933897;29;20667;-71
2022/05/14 14:03:31;;;;;;;2.10;1.17;;;24.30;93.70;;;;;;4946778;28;20854;-72
2022/05/14 14:05:56;;;;;;;1.30;1.10;;;24.30;93.10;;;;;;4952538;28;20459;-72
2022/05/14 14:08:28;;;;;;;1.23;1.10;;;24.40;95.90;;;;;;4951559;28;20472;-72
2022/05/14 14:10:55;;;;;;;2.00;0.90;;;24.50;96.20;;;;;;4952763;28;20692;-72
2022/05/14 14:13:22;;;;;;;2.10;0.80;;;24.50;97.30;;;;;;4952233;28;20431;-71
2022/05/14 14:15:47;;;;;;;1.57;1.10;;;24.50;96.20;;;;;;4953021;28;20448;-71
2022/05/14 14:18:13;;;;;;;0.70;0.70;;;24.30;95.00;;;;;;4952182;28;20482;-72
2022/05/14 14:20:43;;;;;;;0.80;0.70;;;24.30;95.90;;;;;;4951322;28;20188;-70
2022/05/14 14:23:13;;;;;;;1.00;0.90;;;24.30;95.20;;;;;;4948262;28;20185;-72
2022/05/14 14:25:40;;;;;;;2.10;0.80;;;24.30;95.30;;;;;;4955951;28;20785;-72
2022/05/14 14:28:08;;;;;;;3.00;1.10;;;24.30;95.60;;;;;;4955704;29;20487;-72
2022/05/14 14:30:34;;;;;;;1.47;0.80;;;24.30;95.20;;;;;;4949180;28;20530;-71
2022/05/14 14:33:00;;;;;;;3.60;0.80;;;24.20;93.80;;;;;;4955288;29;20976;-72
2022/05/14 14:35:27;;;;;;;1.83;0.87;;;24.20;95.00;;;;;;4955072;29;20527;-71
2022/05/14 14:37:52;;;;;;;6.00;1.00;;;24.00;95.00;;;;;;4956216;28;20271;-72
2022/05/14 14:40:18;;;;;;;4.83;1.40;;;24.00;95.40;;;;;;4954695;29;21040;-72
2022/05/14 14:42:44;;;;;;;2.50;1.00;;;24.10;95.90;;;;;;4955772;28;20208;-72
2022/05/14 14:45:11;;;;;;;3.13;1.20;;;24.10;93.80;;;;;;4955610;28;20448;-72
2022/05/14 14:47:44;;;;;;;1.10;0.87;;;24.10;94.00;;;;;;4955907;28;20180;-72
2022/05/14 14:50:10;;;;;;;2.90;1.17;;;24.30;95.30;;;;;;4954624;28;20440;-72
2022/05/14 14:52:36;;;;;;;2.33;0.70;;;24.20;94.70;;;;;;4955505;28;20440;-72
2022/05/14 14:55:04;;;;;;;4.90;1.17;;;24.20;95.40;;;;;;4955143;28;20452;-71
2022/05/14 14:57:29;;;;;;;1.90;1.20;;;24.20;94.80;;;;;;4956001;28;20200;-72
2022/05/14 14:59:55;;;;;;;1.93;0.87;;;24.10;93.40;;;;;;4955220;28;20464;-72